Los Angeles, California
Current Conditions -  °F | °C
As of 10:47 AM on Friday 31 Oct 2014 (Local Time) from KCQT Reporting Station
Overcast Overcast  
Wind Chill: 69°   Ceiling: 4200
Heat Index: 69°   Visibility: 10mi
Dew Point: 57°   Wind: 0mph
Humidity: 65%   Direction: NA
Pressure: 29.96"   Gusts: NA
Location:  34.05°N, 118.24°W
Report Text: KCQT 311747Z AUTO 00000KT 10SM FEW029 OVC042 21/14 A2996 RMK AO2 SLP143 T02060139 10206 20167 50001
Loading
Personal Weather Stations






























Interactive Weather Map
Tropical Storm Tracking
New forecast layout! Learn more

10-Day Weather Forecast

Advertisements
Track Severe Weather on mobile